TED weather

Thisted Airport
Thisted, North Jutland, Denmark

Public forecast

Using degrees Celsius for public forecast. Weather courtesy of forecast.io.

METAR (pilot weather report)

Closest report is Aalborg Airport, 37.4 nm (69.2 km) E. Retrieved 2019/05/21 16:20 UTC (0 seconds ago):

EKYT 211620Z AUTO 33002KT 9999 FEW022/// BKN031/// BKN095/// 17/16 Q1007

TAF (pilot weather forecast)

Closest forecast is Aalborg Airport, 37.4 nm (69.2 km) E. Retrieved 2019/05/21 15:31 UTC (30 minutes ago):

TAF EKYT 211423Z 2115/2215 VRB04KT 9999 BKN030 TEMPO 2115/2120 2500 SHRA BKN008 BKN025CB PROB40 2115/2119 TSRA TEMPO 2120/2212 2000 -SHRA BR BKN004 SCT030CB BECMG 2123/2202 26010KT TEMPO 2212/2214 BKN012